sensor_id;sensor_type;location;lat;lon;timestamp;temperature;humidity
27567;DHT22;15006;48.584;9.186;2023-04-28T00:02:01;7.40;84.50
27567;DHT22;15006;48.584;9.186;2023-04-28T00:04:27;7.40;84.50
27567;DHT22;15006;48.584;9.186;2023-04-28T00:06:53;7.50;84.60
27567;DHT22;15006;48.584;9.186;2023-04-28T00:09:19;7.50;84.60
27567;DHT22;15006;48.584;9.186;2023-04-28T00:11:45;7.60;84.40
27567;DHT22;15006;48.584;9.186;2023-04-28T00:14:12;7.60;84.60
27567;DHT22;15006;48.584;9.186;2023-04-28T00:16:38;7.60;84.90
27567;DHT22;15006;48.584;9.186;2023-04-28T00:19:04;7.70;84.60
27567;DHT22;15006;48.584;9.186;2023-04-28T00:21:30;7.70;84.40
27567;DHT22;15006;48.584;9.186;2023-04-28T00:23:56;7.80;84.60
27567;DHT22;15006;48.584;9.186;2023-04-28T00:26:23;7.70;84.80
27567;DHT22;15006;48.584;9.186;2023-04-28T00:28:49;7.70;85.00
27567;DHT22;15006;48.584;9.186;2023-04-28T00:31:15;7.70;85.20
27567;DHT22;15006;48.584;9.186;2023-04-28T00:33:42;7.70;85.30
27567;DHT22;15006;48.584;9.186;2023-04-28T00:36:09;7.70;86.20
27567;DHT22;15006;48.584;9.186;2023-04-28T00:38:36;7.80;85.30
27567;DHT22;15006;48.584;9.186;2023-04-28T00:41:02;7.80;85.30
27567;DHT22;15006;48.584;9.186;2023-04-28T00:43:29;7.80;85.60
27567;DHT22;15006;48.584;9.186;2023-04-28T00:45:55;7.80;85.80
27567;DHT22;15006;48.584;9.186;2023-04-28T00:48:21;7.90;86.20
27567;DHT22;15006;48.584;9.186;2023-04-28T00:50:48;7.90;86.30
27567;DHT22;15006;48.584;9.186;2023-04-28T00:53:15;7.90;86.40
27567;DHT22;15006;48.584;9.186;2023-04-28T00:55:41;7.90;86.40
27567;DHT22;15006;48.584;9.186;2023-04-28T00:58:07;7.90;86.30
27567;DHT22;15006;48.584;9.186;2023-04-28T01:00:34;8.00;86.50
27567;DHT22;15006;48.584;9.186;2023-04-28T01:03:00;7.90;86.50
27567;DHT22;15006;48.584;9.186;2023-04-28T01:05:27;7.90;86.50
27567;DHT22;15006;48.584;9.186;2023-04-28T01:07:54;8.00;86.70
27567;DHT22;15006;48.584;9.186;2023-04-28T01:10:20;8.00;86.50
27567;DHT22;15006;48.584;9.186;2023-04-28T01:12:47;8.00;86.60
27567;DHT22;15006;48.584;9.186;2023-04-28T01:15:17;8.10;86.70
27567;DHT22;15006;48.584;9.186;2023-04-28T01:17:44;8.10;86.70
27567;DHT22;15006;48.584;9.186;2023-04-28T01:20:10;8.10;86.10
27567;DHT22;15006;48.584;9.186;2023-04-28T01:22:36;8.10;86.40
27567;DHT22;15006;48.584;9.186;2023-04-28T01:25:03;8.10;86.60
27567;DHT22;15006;48.584;9.186;2023-04-28T01:27:29;8.10;86.70
27567;DHT22;15006;48.584;9.186;2023-04-28T01:29:55;8.10;86.80
27567;DHT22;15006;48.584;9.186;2023-04-28T01:32:22;8.10;87.20
27567;DHT22;15006;48.584;9.186;2023-04-28T01:34:48;8.20;87.40
27567;DHT22;15006;48.584;9.186;2023-04-28T01:37:14;8.20;87.40
27567;DHT22;15006;48.584;9.186;2023-04-28T01:39:40;8.20;87.60
27567;DHT22;15006;48.584;9.186;2023-04-28T01:42:07;8.20;87.90
27567;DHT22;15006;48.584;9.186;2023-04-28T01:44:33;8.30;87.90
27567;DHT22;15006;48.584;9.186;2023-04-28T01:46:59;8.20;88.50
27567;DHT22;15006;48.584;9.186;2023-04-28T01:49:25;8.30;87.70
27567;DHT22;15006;48.584;9.186;2023-04-28T01:51:51;8.30;87.80
27567;DHT22;15006;48.584;9.186;2023-04-28T01:54:17;8.30;87.80
27567;DHT22;15006;48.584;9.186;2023-04-28T01:56:43;8.30;87.70
27567;DHT22;15006;48.584;9.186;2023-04-28T01:59:09;8.30;87.70
27567;DHT22;15006;48.584;9.186;2023-04-28T02:01:35;8.30;88.00
27567;DHT22;15006;48.584;9.186;2023-04-28T02:04:01;8.30;87.80
27567;DHT22;15006;48.584;9.186;2023-04-28T02:06:28;8.30;87.70
27567;DHT22;15006;48.584;9.186;2023-04-28T02:08:54;8.20;87.70
27567;DHT22;15006;48.584;9.186;2023-04-28T02:11:19;8.30;87.90
27567;DHT22;15006;48.584;9.186;2023-04-28T02:13:45;8.20;87.90
27567;DHT22;15006;48.584;9.186;2023-04-28T02:16:12;8.20;88.00
27567;DHT22;15006;48.584;9.186;2023-04-28T02:18:37;8.30;88.30
27567;DHT22;15006;48.584;9.186;2023-04-28T02:21:11;8.30;88.30
27567;DHT22;15006;48.584;9.186;2023-04-28T02:23:38;8.20;88.40
27567;DHT22;15006;48.584;9.186;2023-04-28T02:26:05;8.20;88.40
27567;DHT22;15006;48.584;9.186;2023-04-28T02:28:31;8.20;88.70
27567;DHT22;15006;48.584;9.186;2023-04-28T02:31:15;8.20;88.60
27567;DHT22;15006;48.584;9.186;2023-04-28T02:33:41;8.20;88.40
27567;DHT22;15006;48.584;9.186;2023-04-28T02:36:08;8.20;88.50
27567;DHT22;15006;48.584;9.186;2023-04-28T02:38:34;8.20;88.60
27567;DHT22;15006;48.584;9.186;2023-04-28T02:41:01;8.30;88.80
27567;DHT22;15006;48.584;9.186;2023-04-28T02:43:32;8.30;89.00
27567;DHT22;15006;48.584;9.186;2023-04-28T02:45:58;8.30;89.30
27567;DHT22;15006;48.584;9.186;2023-04-28T02:48:25;8.30;89.70
27567;DHT22;15006;48.584;9.186;2023-04-28T02:50:51;8.30;90.00
27567;DHT22;15006;48.584;9.186;2023-04-28T02:53:18;8.20;89.90
27567;DHT22;15006;48.584;9.186;2023-04-28T02:55:44;8.30;90.10
27567;DHT22;15006;48.584;9.186;2023-04-28T02:58:11;8.20;90.10
27567;DHT22;15006;48.584;9.186;2023-04-28T03:00:37;8.30;90.00
27567;DHT22;15006;48.584;9.186;2023-04-28T03:03:03;8.30;89.20
27567;DHT22;15006;48.584;9.186;2023-04-28T03:05:30;8.30;88.80
27567;DHT22;15006;48.584;9.186;2023-04-28T03:07:55;8.30;88.40
27567;DHT22;15006;48.584;9.186;2023-04-28T03:10:22;8.30;88.40
27567;DHT22;15006;48.584;9.186;2023-04-28T03:12:48;8.30;88.50
27567;DHT22;15006;48.584;9.186;2023-04-28T03:15:14;8.40;88.20
27567;DHT22;15006;48.584;9.186;2023-04-28T03:17:39;8.40;88.20
27567;DHT22;15006;48.584;9.186;2023-04-28T03:20:08;8.40;88.40
27567;DHT22;15006;48.584;9.186;2023-04-28T03:22:34;8.40;88.40
27567;DHT22;15006;48.584;9.186;2023-04-28T03:25:01;8.30;88.20
27567;DHT22;15006;48.584;9.186;2023-04-28T03:27:29;8.40;88.10
27567;DHT22;15006;48.584;9.186;2023-04-28T03:29:56;8.30;88.10
27567;DHT22;15006;48.584;9.186;2023-04-28T03:32:22;8.40;88.20
27567;DHT22;15006;48.584;9.186;2023-04-28T03:34:48;8.30;88.10
27567;DHT22;15006;48.584;9.186;2023-04-28T03:37:13;8.30;88.10
27567;DHT22;15006;48.584;9.186;2023-04-28T03:39:39;8.30;87.90
27567;DHT22;15006;48.584;9.186;2023-04-28T03:42:06;8.30;87.80
27567;DHT22;15006;48.584;9.186;2023-04-28T03:44:31;8.30;87.80
27567;DHT22;15006;48.584;9.186;2023-04-28T03:46:57;8.30;87.80
27567;DHT22;15006;48.584;9.186;2023-04-28T03:49:24;8.30;88.00
27567;DHT22;15006;48.584;9.186;2023-04-28T03:51:50;8.30;88.00
27567;DHT22;15006;48.584;9.186;2023-04-28T03:54:16;8.30;87.90
27567;DHT22;15006;48.584;9.186;2023-04-28T03:56:43;8.30;88.10
27567;DHT22;15006;48.584;9.186;2023-04-28T03:59:10;8.30;88.40
27567;DHT22;15006;48.584;9.186;2023-04-28T04:01:36;8.20;88.30
27567;DHT22;15006;48.584;9.186;2023-04-28T04:04:03;8.30;88.50
27567;DHT22;15006;48.584;9.186;2023-04-28T04:06:30;8.20;88.60
27567;DHT22;15006;48.584;9.186;2023-04-28T04:08:57;8.20;88.80
27567;DHT22;15006;48.584;9.186;2023-04-28T04:11:23;8.20;88.80
27567;DHT22;15006;48.584;9.186;2023-04-28T04:13:49;8.30;89.00
27567;DHT22;15006;48.584;9.186;2023-04-28T04:16:15;8.20;89.10
27567;DHT22;15006;48.584;9.186;2023-04-28T04:18:41;8.30;89.40
27567;DHT22;15006;48.584;9.186;2023-04-28T04:21:07;8.30;89.60
27567;DHT22;15006;48.584;9.186;2023-04-28T04:23:33;8.20;89.60
27567;DHT22;15006;48.584;9.186;2023-04-28T04:25:59;8.20;89.70
27567;DHT22;15006;48.584;9.186;2023-04-28T04:28:25;8.30;89.90
27567;DHT22;15006;48.584;9.186;2023-04-28T04:30:51;8.20;90.00
27567;DHT22;15006;48.584;9.186;2023-04-28T04:33:18;8.30;90.10
27567;DHT22;15006;48.584;9.186;2023-04-28T04:35:44;8.30;90.20
27567;DHT22;15006;48.584;9.186;2023-04-28T04:38:10;8.30;90.20
27567;DHT22;15006;48.584;9.186;2023-04-28T04:40:36;8.30;90.40
27567;DHT22;15006;48.584;9.186;2023-04-28T04:43:02;8.30;90.50
27567;DHT22;15006;48.584;9.186;2023-04-28T04:45:29;8.30;90.50
27567;DHT22;15006;48.584;9.186;2023-04-28T04:47:55;8.20;90.60
27567;DHT22;15006;48.584;9.186;2023-04-28T04:50:21;8.20;90.70
27567;DHT22;15006;48.584;9.186;2023-04-28T04:52:47;8.20;91.00
27567;DHT22;15006;48.584;9.186;2023-04-28T04:55:13;8.20;91.40
27567;DHT22;15006;48.584;9.186;2023-04-28T04:57:39;8.20;91.70
27567;DHT22;15006;48.584;9.186;2023-04-28T05:00:06;8.30;92.10
27567;DHT22;15006;48.584;9.186;2023-04-28T05:02:33;8.20;92.20
27567;DHT22;15006;48.584;9.186;2023-04-28T05:04:59;8.20;92.50
27567;DHT22;15006;48.584;9.186;2023-04-28T05:07:26;8.20;92.80
27567;DHT22;15006;48.584;9.186;2023-04-28T05:09:52;8.20;93.00
27567;DHT22;15006;48.584;9.186;2023-04-28T05:12:17;8.20;93.20
27567;DHT22;15006;48.584;9.186;2023-04-28T05:14:43;8.30;93.50
27567;DHT22;15006;48.584;9.186;2023-04-28T05:17:09;8.30;93.80
27567;DHT22;15006;48.584;9.186;2023-04-28T05:19:36;8.30;94.00
27567;DHT22;15006;48.584;9.186;2023-04-28T05:22:02;8.30;94.30
27567;DHT22;15006;48.584;9.186;2023-04-28T05:24:28;8.30;94.50
27567;DHT22;15006;48.584;9.186;2023-04-28T05:26:57;8.40;94.80
27567;DHT22;15006;48.584;9.186;2023-04-28T05:29:23;8.40;95.10
27567;DHT22;15006;48.584;9.186;2023-04-28T05:31:49;8.40;95.20
27567;DHT22;15006;48.584;9.186;2023-04-28T05:34:15;8.40;95.30
27567;DHT22;15006;48.584;9.186;2023-04-28T05:36:43;8.40;95.50
27567;DHT22;15006;48.584;9.186;2023-04-28T05:39:09;8.50;95.70
27567;DHT22;15006;48.584;9.186;2023-04-28T05:41:36;8.50;95.90
27567;DHT22;15006;48.584;9.186;2023-04-28T05:44:02;8.50;96.10
27567;DHT22;15006;48.584;9.186;2023-04-28T05:46:28;8.50;96.30
27567;DHT22;15006;48.584;9.186;2023-04-28T05:48:54;8.60;96.50
27567;DHT22;15006;48.584;9.186;2023-04-28T05:51:20;8.60;96.80
27567;DHT22;15006;48.584;9.186;2023-04-28T05:53:47;8.60;97.10
27567;DHT22;15006;48.584;9.186;2023-04-28T05:56:16;8.60;97.30
27567;DHT22;15006;48.584;9.186;2023-04-28T05:58:42;8.70;97.50
27567;DHT22;15006;48.584;9.186;2023-04-28T06:01:12;8.70;97.70
27567;DHT22;15006;48.584;9.186;2023-04-28T06:03:39;8.70;97.80
27567;DHT22;15006;48.584;9.186;2023-04-28T06:06:10;8.80;97.80
27567;DHT22;15006;48.584;9.186;2023-04-28T06:08:37;8.80;97.90
27567;DHT22;15006;48.584;9.186;2023-04-28T06:11:04;8.80;98.10
27567;DHT22;15006;48.584;9.186;2023-04-28T06:13:31;8.90;98.30
27567;DHT22;15006;48.584;9.186;2023-04-28T06:15:57;8.90;98.30
27567;DHT22;15006;48.584;9.186;2023-04-28T06:18:23;8.90;98.60
27567;DHT22;15006;48.584;9.186;2023-04-28T06:20:49;8.90;98.90
27567;DHT22;15006;48.584;9.186;2023-04-28T06:23:15;9.00;99.10
27567;DHT22;15006;48.584;9.186;2023-04-28T06:25:41;9.00;99.20
27567;DHT22;15006;48.584;9.186;2023-04-28T06:28:07;9.00;99.20
27567;DHT22;15006;48.584;9.186;2023-04-28T06:30:33;9.00;99.30
27567;DHT22;15006;48.584;9.186;2023-04-28T06:33:00;9.10;99.40
27567;DHT22;15006;48.584;9.186;2023-04-28T06:35:27;9.10;99.50
27567;DHT22;15006;48.584;9.186;2023-04-28T06:37:53;9.10;99.60
27567;DHT22;15006;48.584;9.186;2023-04-28T06:40:19;9.20;99.60
27567;DHT22;15006;48.584;9.186;2023-04-28T06:42:45;9.20;99.60
27567;DHT22;15006;48.584;9.186;2023-04-28T06:45:11;9.20;99.60
27567;DHT22;15006;48.584;9.186;2023-04-28T06:47:37;9.20;99.70
27567;DHT22;15006;48.584;9.186;2023-04-28T06:50:05;9.30;99.80
27567;DHT22;15006;48.584;9.186;2023-04-28T06:52:32;9.30;99.90
27567;DHT22;15006;48.584;9.186;2023-04-28T06:54:58;9.30;99.90
27567;DHT22;15006;48.584;9.186;2023-04-28T06:57:24;9.40;99.90
27567;DHT22;15006;48.584;9.186;2023-04-28T06:59:50;9.40;99.90
27567;DHT22;15006;48.584;9.186;2023-04-28T07:02:16;9.40;99.90
27567;DHT22;15006;48.584;9.186;2023-04-28T07:04:42;9.40;99.90
27567;DHT22;15006;48.584;9.186;2023-04-28T07:07:08;9.40;99.90
27567;DHT22;15006;48.584;9.186;2023-04-28T07:09:35;9.40;99.90
27567;DHT22;15006;48.584;9.186;2023-04-28T07:12:02;9.50;99.90
27567;DHT22;15006;48.584;9.186;2023-04-28T07:14:29;9.50;99.90
27567;DHT22;15006;48.584;9.186;2023-04-28T07:16:55;9.50;99.90
27567;DHT22;15006;48.584;9.186;2023-04-28T07:19:21;9.60;99.90
27567;DHT22;15006;48.584;9.186;2023-04-28T07:21:47;9.60;99.90
27567;DHT22;15006;48.584;9.186;2023-04-28T07:24:13;9.70;99.90
27567;DHT22;15006;48.584;9.186;2023-04-28T07:26:39;9.70;99.90
27567;DHT22;15006;48.584;9.186;2023-04-28T07:29:05;9.80;99.90
27567;DHT22;15006;48.584;9.186;2023-04-28T07:31:33;9.70;99.90
27567;DHT22;15006;48.584;9.186;2023-04-28T07:34:00;9.80;99.90
27567;DHT22;15006;48.584;9.186;2023-04-28T07:36:26;9.80;99.90
27567;DHT22;15006;48.584;9.186;2023-04-28T07:38:52;9.80;99.90
27567;DHT22;15006;48.584;9.186;2023-04-28T07:41:18;9.80;99.90
27567;DHT22;15006;48.584;9.186;2023-04-28T07:43:44;9.80;99.90
27567;DHT22;15006;48.584;9.186;2023-04-28T07:46:11;9.80;99.90
27567;DHT22;15006;48.584;9.186;2023-04-28T07:48:37;9.80;99.90
27567;DHT22;15006;48.584;9.186;2023-04-28T07:51:03;9.80;99.90
27567;DHT22;15006;48.584;9.186;2023-04-28T07:53:29;9.80;99.90
27567;DHT22;15006;48.584;9.186;2023-04-28T07:55:55;9.70;99.90
27567;DHT22;15006;48.584;9.186;2023-04-28T07:58:21;9.70;99.90
27567;DHT22;15006;48.584;9.186;2023-04-28T08:00:48;9.70;99.90
27567;DHT22;15006;48.584;9.186;2023-04-28T08:03:14;9.60;99.90
27567;DHT22;15006;48.584;9.186;2023-04-28T08:05:40;9.60;99.90
27567;DHT22;15006;48.584;9.186;2023-04-28T08:08:06;9.60;99.90
27567;DHT22;15006;48.584;9.186;2023-04-28T08:10:32;9.60;99.90
27567;DHT22;15006;48.584;9.186;2023-04-28T08:12:58;9.60;99.90
27567;DHT22;15006;48.584;9.186;2023-04-28T08:15:24;9.60;99.90
27567;DHT22;15006;48.584;9.186;2023-04-28T08:17:52;9.60;99.90
27567;DHT22;15006;48.584;9.186;2023-04-28T08:20:18;9.60;99.90
27567;DHT22;15006;48.584;9.186;2023-04-28T08:22:45;9.60;99.90
27567;DHT22;15006;48.584;9.186;2023-04-28T08:25:11;9.60;99.90
27567;DHT22;15006;48.584;9.186;2023-04-28T08:27:37;9.70;99.90
27567;DHT22;15006;48.584;9.186;2023-04-28T08:30:08;9.70;99.90
27567;DHT22;15006;48.584;9.186;2023-04-28T08:32:34;9.70;99.90
27567;DHT22;15006;48.584;9.186;2023-04-28T08:35:00;9.80;99.90
27567;DHT22;15006;48.584;9.186;2023-04-28T08:37:27;9.80;99.90
27567;DHT22;15006;48.584;9.186;2023-04-28T08:39:53;9.90;99.90
27567;DHT22;15006;48.584;9.186;2023-04-28T08:42:30;9.80;99.90
27567;DHT22;15006;48.584;9.186;2023-04-28T08:44:57;9.90;99.90
27567;DHT22;15006;48.584;9.186;2023-04-28T08:47:34;10.00;99.90
27567;DHT22;15006;48.584;9.186;2023-04-28T08:50:04;10.10;99.90
27567;DHT22;15006;48.584;9.186;2023-04-28T08:52:33;10.10;99.90
27567;DHT22;15006;48.584;9.186;2023-04-28T08:55:03;10.10;99.90
27567;DHT22;15006;48.584;9.186;2023-04-28T08:57:58;10.20;99.90
27567;DHT22;15006;48.584;9.186;2023-04-28T09:00:23;10.20;99.90
27567;DHT22;15006;48.584;9.186;2023-04-28T09:02:49;10.30;99.90
27567;DHT22;15006;48.584;9.186;2023-04-28T09:05:15;10.30;99.90
27567;DHT22;15006;48.584;9.186;2023-04-28T09:07:44;10.30;99.90
27567;DHT22;15006;48.584;9.186;2023-04-28T09:10:21;10.40;99.90
27567;DHT22;15006;48.584;9.186;2023-04-28T09:12:53;10.50;99.90
27567;DHT22;15006;48.584;9.186;2023-04-28T09:15:34;10.60;99.90
27567;DHT22;15006;48.584;9.186;2023-04-28T09:18:07;10.60;99.90
27567;DHT22;15006;48.584;9.186;2023-04-28T09:20:34;10.70;99.90
27567;DHT22;15006;48.584;9.186;2023-04-28T09:23:13;10.70;99.90
27567;DHT22;15006;48.584;9.186;2023-04-28T09:25:59;10.70;99.90
27567;DHT22;15006;48.584;9.186;2023-04-28T09:28:30;10.80;99.90
27567;DHT22;15006;48.584;9.186;2023-04-28T09:30:57;10.80;99.90
27567;DHT22;15006;48.584;9.186;2023-04-28T09:33:23;10.80;99.90
27567;DHT22;15006;48.584;9.186;2023-04-28T09:35:50;10.80;99.90
27567;DHT22;15006;48.584;9.186;2023-04-28T09:38:18;10.80;99.90
27567;DHT22;15006;48.584;9.186;2023-04-28T09:40:59;10.90;99.90
27567;DHT22;15006;48.584;9.186;2023-04-28T09:43:31;10.90;99.90
27567;DHT22;15006;48.584;9.186;2023-04-28T09:46:01;11.00;99.90
27567;DHT22;15006;48.584;9.186;2023-04-28T09:48:35;11.00;99.90
27567;DHT22;15006;48.584;9.186;2023-04-28T09:51:04;11.10;99.90
27567;DHT22;15006;48.584;9.186;2023-04-28T09:53:31;11.20;99.90
27567;DHT22;15006;48.584;9.186;2023-04-28T09:56:00;11.20;99.90
27567;DHT22;15006;48.584;9.186;2023-04-28T09:58:29;11.30;99.90
27567;DHT22;15006;48.584;9.186;2023-04-28T10:00:58;11.40;99.90
27567;DHT22;15006;48.584;9.186;2023-04-28T10:03:26;11.50;99.90
27567;DHT22;15006;48.584;9.186;2023-04-28T10:05:56;11.60;99.90
27567;DHT22;15006;48.584;9.186;2023-04-28T10:08:23;11.70;99.90
27567;DHT22;15006;48.584;9.186;2023-04-28T10:10:51;11.90;99.90
27567;DHT22;15006;48.584;9.186;2023-04-28T10:13:22;12.00;99.90
27567;DHT22;15006;48.584;9.186;2023-04-28T10:15:50;12.10;99.90
27567;DHT22;15006;48.584;9.186;2023-04-28T10:18:24;12.40;99.90
27567;DHT22;15006;48.584;9.186;2023-04-28T10:20:59;12.60;99.90
27567;DHT22;15006;48.584;9.186;2023-04-28T10:23:59;12.80;99.90
27567;DHT22;15006;48.584;9.186;2023-04-28T10:26:57;13.00;99.90
27567;DHT22;15006;48.584;9.186;2023-04-28T10:29:31;13.20;99.90
27567;DHT22;15006;48.584;9.186;2023-04-28T10:32:13;13.30;99.90
27567;DHT22;15006;48.584;9.186;2023-04-28T10:34:51;13.40;99.90
27567;DHT22;15006;48.584;9.186;2023-04-28T10:37:17;13.50;99.90
27567;DHT22;15006;48.584;9.186;2023-04-28T10:40:38;13.50;99.90
27567;DHT22;15006;48.584;9.186;2023-04-28T10:43:09;13.60;99.90
27567;DHT22;15006;48.584;9.186;2023-04-28T10:49:02;13.60;99.90
27567;DHT22;15006;48.584;9.186;2023-04-28T10:56:14;13.80;99.90
27567;DHT22;15006;48.584;9.186;2023-04-28T10:58:42;13.80;99.90
27567;DHT22;15006;48.584;9.186;2023-04-28T11:01:27;13.90;99.90
27567;DHT22;15006;48.584;9.186;2023-04-28T11:04:04;13.90;99.30
27567;DHT22;15006;48.584;9.186;2023-04-28T11:06:44;14.00;99.60
27567;DHT22;15006;48.584;9.186;2023-04-28T11:11:37;14.00;99.90
27567;DHT22;15006;48.584;9.186;2023-04-28T11:16:53;14.10;99.90
27567;DHT22;15006;48.584;9.186;2023-04-28T11:19:25;14.10;99.90
27567;DHT22;15006;48.584;9.186;2023-04-28T11:21:58;14.20;99.90
27567;DHT22;15006;48.584;9.186;2023-04-28T11:24:27;14.20;99.90
27567;DHT22;15006;48.584;9.186;2023-04-28T11:26:54;14.30;99.90
27567;DHT22;15006;48.584;9.186;2023-04-28T11:32:01;14.40;98.70
27567;DHT22;15006;48.584;9.186;2023-04-28T11:34:28;14.40;98.90
27567;DHT22;15006;48.584;9.186;2023-04-28T11:36:54;14.40;98.70
27567;DHT22;15006;48.584;9.186;2023-04-28T11:39:31;14.40;97.50
27567;DHT22;15006;48.584;9.186;2023-04-28T11:42:00;14.40;97.00
27567;DHT22;15006;48.584;9.186;2023-04-28T11:44:29;14.40;98.30
27567;DHT22;15006;48.584;9.186;2023-04-28T11:46:56;14.50;99.20
27567;DHT22;15006;48.584;9.186;2023-04-28T11:49:32;14.60;97.50
27567;DHT22;15006;48.584;9.186;2023-04-28T11:52:08;14.70;96.40
27567;DHT22;15006;48.584;9.186;2023-04-28T11:54:35;14.70;97.10
27567;DHT22;15006;48.584;9.186;2023-04-28T11:57:01;14.90;96.70
27567;DHT22;15006;48.584;9.186;2023-04-28T11:59:33;15.00;95.60
27567;DHT22;15006;48.584;9.186;2023-04-28T12:02:01;15.10;94.50
27567;DHT22;15006;48.584;9.186;2023-04-28T12:04:33;15.20;94.20
27567;DHT22;15006;48.584;9.186;2023-04-28T12:07:06;15.30;94.30
27567;DHT22;15006;48.584;9.186;2023-04-28T12:12:10;15.40;93.30
27567;DHT22;15006;48.584;9.186;2023-04-28T12:17:24;15.40;92.00
27567;DHT22;15006;48.584;9.186;2023-04-28T12:19:52;15.40;92.40
27567;DHT22;15006;48.584;9.186;2023-04-28T12:22:22;15.30;91.20
27567;DHT22;15006;48.584;9.186;2023-04-28T12:25:08;15.30;91.40
27567;DHT22;15006;48.584;9.186;2023-04-28T12:27:36;15.20;89.70
27567;DHT22;15006;48.584;9.186;2023-04-28T12:32:46;15.10;90.20
27567;DHT22;15006;48.584;9.186;2023-04-28T12:35:13;15.00;91.80
27567;DHT22;15006;48.584;9.186;2023-04-28T12:37:40;15.10;92.60
27567;DHT22;15006;48.584;9.186;2023-04-28T12:40:07;15.10;91.10
27567;DHT22;15006;48.584;9.186;2023-04-28T12:42:34;15.10;91.10
27567;DHT22;15006;48.584;9.186;2023-04-28T12:45:01;15.20;91.90
27567;DHT22;15006;48.584;9.186;2023-04-28T12:47:28;15.30;91.00
27567;DHT22;15006;48.584;9.186;2023-04-28T12:49:54;15.30;90.70
27567;DHT22;15006;48.584;9.186;2023-04-28T12:52:20;15.30;90.70
27567;DHT22;15006;48.584;9.186;2023-04-28T12:54:47;15.20;90.70
27567;DHT22;15006;48.584;9.186;2023-04-28T12:57:17;15.20;91.00
27567;DHT22;15006;48.584;9.186;2023-04-28T12:59:44;15.10;91.90
27567;DHT22;15006;48.584;9.186;2023-04-28T13:02:12;15.20;90.90
27567;DHT22;15006;48.584;9.186;2023-04-28T13:04:40;15.20;93.00
27567;DHT22;15006;48.584;9.186;2023-04-28T13:07:11;15.20;91.90
27567;DHT22;15006;48.584;9.186;2023-04-28T13:09:38;15.30;91.50
27567;DHT22;15006;48.584;9.186;2023-04-28T13:12:04;15.40;91.00
27567;DHT22;15006;48.584;9.186;2023-04-28T13:14:30;15.50;91.20
27567;DHT22;15006;48.584;9.186;2023-04-28T13:16:57;15.60;91.50
27567;DHT22;15006;48.584;9.186;2023-04-28T13:19:23;15.80;91.30
27567;DHT22;15006;48.584;9.186;2023-04-28T13:21:49;15.80;90.60
27567;DHT22;15006;48.584;9.186;2023-04-28T13:24:15;15.90;89.70
27567;DHT22;15006;48.584;9.186;2023-04-28T13:26:42;16.00;88.10
27567;DHT22;15006;48.584;9.186;2023-04-28T13:29:11;16.00;87.60
27567;DHT22;15006;48.584;9.186;2023-04-28T13:31:39;16.00;87.00
27567;DHT22;15006;48.584;9.186;2023-04-28T13:34:05;15.90;85.40
27567;DHT22;15006;48.584;9.186;2023-04-28T13:36:32;15.90;86.50
27567;DHT22;15006;48.584;9.186;2023-04-28T13:38:59;15.80;88.50
27567;DHT22;15006;48.584;9.186;2023-04-28T13:41:26;15.70;87.60
27567;DHT22;15006;48.584;9.186;2023-04-28T13:43:52;15.60;86.10
27567;DHT22;15006;48.584;9.186;2023-04-28T13:46:19;15.50;85.50
27567;DHT22;15006;48.584;9.186;2023-04-28T13:48:45;15.40;85.10
27567;DHT22;15006;48.584;9.186;2023-04-28T13:51:11;15.30;87.70
27567;DHT22;15006;48.584;9.186;2023-04-28T13:53:37;15.20;87.70
27567;DHT22;15006;48.584;9.186;2023-04-28T13:56:05;15.10;89.20
27567;DHT22;15006;48.584;9.186;2023-04-28T13:58:32;15.00;90.70
27567;DHT22;15006;48.584;9.186;2023-04-28T14:00:58;14.90;90.50
27567;DHT22;15006;48.584;9.186;2023-04-28T14:03:25;14.90;90.50
27567;DHT22;15006;48.584;9.186;2023-04-28T14:05:56;14.80;90.80
27567;DHT22;15006;48.584;9.186;2023-04-28T14:08:23;14.80;91.00
27567;DHT22;15006;48.584;9.186;2023-04-28T14:10:50;14.70;91.30
27567;DHT22;15006;48.584;9.186;2023-04-28T14:13:18;14.70;91.40
27567;DHT22;15006;48.584;9.186;2023-04-28T14:15:44;14.60;90.80
27567;DHT22;15006;48.584;9.186;2023-04-28T14:18:11;14.60;91.20
27567;DHT22;15006;48.584;9.186;2023-04-28T14:20:37;14.50;91.60
27567;DHT22;15006;48.584;9.186;2023-04-28T14:23:03;14.40;92.00
27567;DHT22;15006;48.584;9.186;2023-04-28T14:25:29;14.30;92.30
27567;DHT22;15006;48.584;9.186;2023-04-28T14:27:55;14.30;92.20
27567;DHT22;15006;48.584;9.186;2023-04-28T14:30:23;14.10;92.30
27567;DHT22;15006;48.584;9.186;2023-04-28T14:32:50;14.00;93.10
27567;DHT22;15006;48.584;9.186;2023-04-28T14:35:16;13.80;93.40
27567;DHT22;15006;48.584;9.186;2023-04-28T14:37:42;13.70;94.00
27567;DHT22;15006;48.584;9.186;2023-04-28T14:40:09;13.60;94.70
27567;DHT22;15006;48.584;9.186;2023-04-28T14:42:35;13.40;95.40
27567;DHT22;15006;48.584;9.186;2023-04-28T14:45:03;13.30;96.20
27567;DHT22;15006;48.584;9.186;2023-04-28T14:47:31;13.20;97.30
27567;DHT22;15006;48.584;9.186;2023-04-28T14:49:57;13.10;98.30
27567;DHT22;15006;48.584;9.186;2023-04-28T14:52:23;13.00;99.40
27567;DHT22;15006;48.584;9.186;2023-04-28T14:54:55;12.90;99.90
27567;DHT22;15006;48.584;9.186;2023-04-28T14:57:21;12.90;99.90
27567;DHT22;15006;48.584;9.186;2023-04-28T14:59:48;12.80;99.90
27567;DHT22;15006;48.584;9.186;2023-04-28T15:02:17;12.70;99.90
27567;DHT22;15006;48.584;9.186;2023-04-28T15:04:45;12.60;99.90
27567;DHT22;15006;48.584;9.186;2023-04-28T15:07:11;12.60;99.90
27567;DHT22;15006;48.584;9.186;2023-04-28T15:09:37;12.50;99.90
27567;DHT22;15006;48.584;9.186;2023-04-28T15:12:04;12.50;99.90
27567;DHT22;15006;48.584;9.186;2023-04-28T15:14:30;12.40;99.90
27567;DHT22;15006;48.584;9.186;2023-04-28T15:16:57;12.40;99.90
27567;DHT22;15006;48.584;9.186;2023-04-28T15:19:23;12.30;99.90
27567;DHT22;15006;48.584;9.186;2023-04-28T15:21:50;12.40;99.90
27567;DHT22;15006;48.584;9.186;2023-04-28T15:24:18;12.30;99.90
27567;DHT22;15006;48.584;9.186;2023-04-28T15:26:44;12.30;99.90
27567;DHT22;15006;48.584;9.186;2023-04-28T15:29:11;12.30;99.90
27567;DHT22;15006;48.584;9.186;2023-04-28T15:31:37;12.20;99.90
27567;DHT22;15006;48.584;9.186;2023-04-28T15:34:04;12.20;99.90
27567;DHT22;15006;48.584;9.186;2023-04-28T15:36:30;12.10;99.90
27567;DHT22;15006;48.584;9.186;2023-04-28T15:38:57;12.10;99.90
27567;DHT22;15006;48.584;9.186;2023-04-28T15:41:23;12.10;99.90
27567;DHT22;15006;48.584;9.186;2023-04-28T15:43:49;12.00;99.90
27567;DHT22;15006;48.584;9.186;2023-04-28T15:46:15;12.00;99.90
27567;DHT22;15006;48.584;9.186;2023-04-28T15:48:42;12.00;99.90
27567;DHT22;15006;48.584;9.186;2023-04-28T15:51:09;12.00;99.90
27567;DHT22;15006;48.584;9.186;2023-04-28T15:53:37;12.00;99.90
27567;DHT22;15006;48.584;9.186;2023-04-28T15:56:03;12.00;99.90
27567;DHT22;15006;48.584;9.186;2023-04-28T15:58:30;12.00;99.90
27567;DHT22;15006;48.584;9.186;2023-04-28T16:00:56;12.10;99.90
27567;DHT22;15006;48.584;9.186;2023-04-28T16:03:24;12.10;99.90
27567;DHT22;15006;48.584;9.186;2023-04-28T16:05:54;12.20;99.90
27567;DHT22;15006;48.584;9.186;2023-04-28T16:08:21;12.20;99.90